Tanja Jacob — A8YR7 — position and weather

sailwx.info

Track history (hours):
 
Tides and Currents Weather Stations Pressure Air Temp Water Temp Dewpoint Dewpoint Depression Visibility Wind Speed Wind Dir Waves Ship Positions

Tanja Jacob

Last reported at 2014-Sep-22 05:20 UTC. Time now 2014-Oct-26 03:51 UTC.
Position N 37°17' E 007°00'.
Warning: this ship's position is 33 days out of date.

Length 227 m; draft 8.2 m.

Type: Ship. MMSI: 636092217.

Date/timePositionNaut miles runAvg speedWind from/ knotsBaromVisibWave heightAir tempDewpointWater temp
2014-Sep-22 05:20N 37°17' E 007°00'0 0.5
2014-Sep-22 04:32N 37°18' E 006°60'1 0.8
2014-Sep-22 03:33N 37°18' E 006°59'5 0.9
2014-Sep-21 21:26N 37°19' E 006°52'3 0.8
2014-Sep-21 17:21N 37°18' E 006°49'1 0.3
2014-Sep-21 15:21N 37°17' E 006°49'40 4.4
2014-Sep-21 06:23N 37°21' E 007°38'1011.7
2014-Sep-21 05:33N 37°23' E 007°50'1211.6
2014-Sep-21 04:33N 37°27' E 008°04'1211.7
2014-Sep-21 03:33N 37°30' E 008°19'1212.0
2014-Sep-21 02:33N 37°33' E 008°33'1212.3
2014-Sep-21 01:33N 37°37' E 008°48'1211.8
2014-Sep-21 00:33N 37°39' E 009°03'1111.2
2014-Sep-20 23:33N 37°39' E 009°17'1111.0
2014-Sep-20 22:33N 37°39' E 009°31'1110.8
2014-Sep-20 21:33N 37°39' E 009°44'1110.9
2014-Sep-20 20:33N 37°39' E 009°58'1111.0
2014-Sep-20 19:33N 37°39' E 010°12'1111.2
2014-Sep-20 18:32N 37°37' E 010°26'1211.7
2014-Sep-20 17:32N 37°34' E 010°40'1211.9
2014-Sep-20 16:33N 37°31' E 010°55'1412.1
2014-Sep-20 15:25N 37°27' E 011°11'1112.2
2014-Sep-20 14:33N 37°22' E 011°23'3712.2
2014-Sep-20 11:33N 37°04' E 012°03'1312.0
2014-Sep-20 10:30N 36°57' E 012°16'1112.0
2014-Sep-20 09:33N 36°51' E 012°28'1212.1
2014-Sep-20 08:33N 36°44' E 012°41'1211.9
2014-Sep-20 07:33N 36°37' E 012°52'1312.2
2014-Sep-20 06:30N 36°30' E 013°06'1512.4
2014-Sep-20 05:16N 36°21' E 013°21'912.5
2014-Sep-20 04:33N 36°15' E 013°30'1312.8
2014-Sep-20 03:33N 36°08' E 013°43'1312.6
2014-Sep-20 02:30N 35°60' E 013°56'1212.3
2014-Sep-20 01:31N 35°53' E 014°08'1711.8
2014-Sep-20 00:07N 35°45' E 014°26'611.5
2014-Sep-19 23:33N 35°46' E 014°34'7 6.7
2014-Sep-19 22:33N 35°49' E 014°41'1110.6
2014-Sep-19 21:33N 35°47' E 014°54'1111.1
2014-Sep-19 20:33N 35°45' E 015°07'1211.5
2014-Sep-19 19:31N 35°43' E 015°22'  
2014-Sep-16 22:28N 34°01' E 031°38'1211.7
2014-Sep-16 21:26N 34°01' E 031°53'1411.8
2014-Sep-16 20:17N 34°00' E 032°09'8011.5
2014-Sep-16 13:21N 33°59' E 033°45'  
Track history (hours):
 
Tides and Currents Weather Stations Pressure Air Temp Water Temp Dewpoint Dewpoint Depression Visibility Wind Speed Wind Dir Waves Ship Positions

Tanja Jacob

Last reported at 2014-Sep-22 05:20 UTC. Time now 2014-Oct-26 03:51 UTC.
Position N 37°17' E 007°00'.
Warning: this ship's position is 33 days out of date.

Length 227 m; draft 8.2 m.

Type: Ship. MMSI: 636092217.

Date/timePositionNaut miles runAvg speedWind from/ knotsBaromVisibWave heightAir tempDewpointWater temp
2014-Sep-22 05:20N 37°17' E 007°00'0 0.5
2014-Sep-22 04:32N 37°18' E 006°60'1 0.8
2014-Sep-22 03:33N 37°18' E 006°59'5 0.9
2014-Sep-21 21:26N 37°19' E 006°52'3 0.8
2014-Sep-21 17:21N 37°18' E 006°49'1 0.3
2014-Sep-21 15:21N 37°17' E 006°49'40 4.4
2014-Sep-21 06:23N 37°21' E 007°38'1011.7
2014-Sep-21 05:33N 37°23' E 007°50'1211.6
2014-Sep-21 04:33N 37°27' E 008°04'1211.7
2014-Sep-21 03:33N 37°30' E 008°19'1212.0
2014-Sep-21 02:33N 37°33' E 008°33'1212.3
2014-Sep-21 01:33N 37°37' E 008°48'1211.8
2014-Sep-21 00:33N 37°39' E 009°03'1111.2
2014-Sep-20 23:33N 37°39' E 009°17'1111.0
2014-Sep-20 22:33N 37°39' E 009°31'1110.8
2014-Sep-20 21:33N 37°39' E 009°44'1110.9
2014-Sep-20 20:33N 37°39' E 009°58'1111.0
2014-Sep-20 19:33N 37°39' E 010°12'1111.2
2014-Sep-20 18:32N 37°37' E 010°26'1211.7
2014-Sep-20 17:32N 37°34' E 010°40'1211.9
2014-Sep-20 16:33N 37°31' E 010°55'1412.1
2014-Sep-20 15:25N 37°27' E 011°11'1112.2
2014-Sep-20 14:33N 37°22' E 011°23'3712.2
2014-Sep-20 11:33N 37°04' E 012°03'1312.0
2014-Sep-20 10:30N 36°57' E 012°16'1112.0
2014-Sep-20 09:33N 36°51' E 012°28'1212.1
2014-Sep-20 08:33N 36°44' E 012°41'1211.9
2014-Sep-20 07:33N 36°37' E 012°52'1312.2
2014-Sep-20 06:30N 36°30' E 013°06'1512.4
2014-Sep-20 05:16N 36°21' E 013°21'912.5
2014-Sep-20 04:33N 36°15' E 013°30'1312.8
2014-Sep-20 03:33N 36°08' E 013°43'1312.6
2014-Sep-20 02:30N 35°60' E 013°56'1212.3
2014-Sep-20 01:31N 35°53' E 014°08'1711.8
2014-Sep-20 00:07N 35°45' E 014°26'611.5
2014-Sep-19 23:33N 35°46' E 014°34'7 6.7
2014-Sep-19 22:33N 35°49' E 014°41'1110.6
2014-Sep-19 21:33N 35°47' E 014°54'1111.1
2014-Sep-19 20:33N 35°45' E 015°07'1211.5
2014-Sep-19 19:31N 35°43' E 015°22'  
2014-Sep-16 22:28N 34°01' E 031°38'1211.7
2014-Sep-16 21:26N 34°01' E 031°53'1411.8
2014-Sep-16 20:17N 34°00' E 032°09'8011.5
2014-Sep-16 13:21N 33°59' E 033°45'  

Dump ship's entire track history